Time;durP1;ratioP1;P1;durP2;ratioP2;P2;SDS_P1;SDS_P2;PMS_P1;PMS_P2;Temp;Humidity;BMP_temperature;BMP_pressure;BME280_temperature;BME280_humidity;BME280_pressure;Samples;Min_cycle;Max_cycle;Signal;HPM_P1;HPM_P2
2023/09/30 00:00:53;;;;;;;3.15;1.30;;;15.20;99.90;;;15.49;100.00;101911.22;5216046;28;20053;-48
2023/09/30 00:03:26;;;;;;;3.47;1.77;;;15.20;99.90;;;15.52;100.00;101910.44;5230050;28;20053;-49
2023/09/30 00:05:58;;;;;;;3.30;1.55;;;15.30;99.90;;;15.54;100.00;101914.03;5216379;28;20041;-48
2023/09/30 00:08:30;;;;;;;2.67;1.52;;;15.30;99.90;;;15.55;100.00;101918.44;5217103;28;20041;-49
2023/09/30 00:11:06;;;;;;;3.38;1.70;;;15.30;99.90;;;15.53;100.00;101920.13;5229187;28;20045;-49
2023/09/30 00:13:39;;;;;;;3.60;2.20;;;15.30;99.90;;;15.51;100.00;101921.78;5219743;28;20397;-49
2023/09/30 00:16:12;;;;;;;3.20;1.58;;;15.30;99.90;;;15.44;100.00;101924.22;5215660;28;20159;-49
2023/09/30 00:18:44;;;;;;;3.08;1.70;;;15.20;99.90;;;15.38;100.00;101926.63;5216966;28;20431;-49
2023/09/30 00:21:20;;;;;;;4.70;1.73;;;15.20;99.90;;;15.31;100.00;101929.91;5229939;28;20044;-48
2023/09/30 00:23:52;;;;;;;4.32;1.42;;;15.10;99.90;;;15.23;100.00;101931.38;5231990;28;20471;-48
2023/09/30 00:26:26;;;;;;;3.55;1.30;;;15.00;99.90;;;15.17;100.00;101953.09;5228404;28;20080;-48
2023/09/30 00:28:58;;;;;;;4.22;1.40;;;15.00;99.90;;;15.14;100.00;101957.34;5228564;28;21355;-49
2023/09/30 00:31:34;;;;;;;3.70;1.80;;;14.90;99.90;;;15.10;100.00;101951.09;5217293;28;20041;-49
2023/09/30 00:34:06;;;;;;;2.17;1.25;;;14.90;99.90;;;15.05;100.00;101954.38;5219811;28;20044;-50
2023/09/30 00:36:38;;;;;;;3.03;1.45;;;14.90;99.90;;;15.01;100.00;101955.16;5237514;28;20543;-49
2023/09/30 00:39:11;;;;;;;2.22;1.20;;;14.80;99.90;;;15.00;100.00;101950.72;5234799;28;20095;-49
2023/09/30 00:41:45;;;;;;;4.05;2.05;;;14.80;99.90;;;15.01;100.00;101944.63;5230235;28;20408;-48
2023/09/30 00:44:18;;;;;;;3.65;1.50;;;14.80;99.90;;;15.03;100.00;101946.47;5236246;28;20495;-48
2023/09/30 00:46:50;;;;;;;2.42;1.63;;;14.80;99.90;;;15.04;100.00;101950.88;5232461;28;20064;-48
2023/09/30 00:49:23;;;;;;;3.42;1.60;;;14.90;99.90;;;15.07;100.00;101947.47;5223925;28;20056;-49
2023/09/30 00:51:56;;;;;;;3.30;1.35;;;14.90;99.90;;;15.09;100.00;101937.91;5215921;28;20045;-48
2023/09/30 00:54:30;;;;;;;3.30;1.38;;;14.90;99.90;;;15.10;100.00;101945.84;5234205;28;20052;-48
2023/09/30 00:57:04;;;;;;;5.13;2.00;;;14.90;99.90;;;15.12;100.00;101943.25;5229176;28;20401;-47
2023/09/30 00:59:36;;;;;;;4.57;1.67;;;14.90;99.90;;;15.11;100.00;101933.59;5216406;28;20670;-48
2023/09/30 01:02:09;;;;;;;5.43;1.98;;;14.90;99.90;;;15.07;100.00;101945.75;5222310;28;20140;-49
2023/09/30 01:04:42;;;;;;;3.30;1.67;;;14.90;99.90;;;15.05;100.00;101942.16;5219945;28;20523;-48
2023/09/30 01:07:14;;;;;;;4.78;1.90;;;14.90;99.90;;;15.01;100.00;101948.16;5231819;28;20532;-48
2023/09/30 01:09:47;;;;;;;5.13;2.03;;;14.80;99.90;;;14.94;100.00;101938.28;5221098;28;20514;-49
2023/09/30 01:12:21;;;;;;;3.05;1.63;;;14.80;99.90;;;14.91;100.00;101943.41;5236174;28;20458;-49
2023/09/30 01:14:59;;;;;;;2.88;1.15;;;14.70;99.90;;;14.89;100.00;101950.34;5221948;28;20037;-48
2023/09/30 01:17:32;;;;;;;5.43;1.70;;;14.70;99.90;;;14.90;100.00;101941.63;5219961;28;20095;-48
2023/09/30 01:20:06;;;;;;;2.95;1.58;;;14.70;99.90;;;14.90;100.00;101942.50;5222225;28;20049;-48
2023/09/30 01:22:40;;;;;;;4.05;1.73;;;14.70;99.90;;;14.91;100.00;101953.91;5216624;28;20115;-49
2023/09/30 01:25:13;;;;;;;2.92;1.50;;;14.70;99.90;;;14.91;100.00;101960.06;5237031;28;20055;-48
2023/09/30 01:27:45;;;;;;;2.90;1.38;;;14.70;99.90;;;14.89;100.00;101966.09;5222174;28;20055;-49
2023/09/30 01:30:18;;;;;;;3.80;1.63;;;14.70;99.90;;;14.86;100.00;101956.34;5244424;28;20090;-48
2023/09/30 01:32:50;;;;;;;3.88;1.70;;;14.70;99.90;;;14.82;100.00;101954.47;5228005;28;20049;-48
2023/09/30 01:35:22;;;;;;;4.20;1.52;;;14.70;99.90;;;14.80;100.00;101955.25;5226960;28;20060;-48
2023/09/30 01:37:56;;;;;;;3.42;1.40;;;14.60;99.90;;;14.78;100.00;101952.56;5244532;28;20053;-49
2023/09/30 01:40:28;;;;;;;3.03;1.40;;;14.60;99.90;;;14.76;100.00;101954.25;5228457;28;20075;-48
2023/09/30 01:43:03;;;;;;;2.63;1.50;;;14.60;99.90;;;14.75;100.00;101962.09;5226686;28;20099;-49
2023/09/30 01:45:38;;;;;;;3.42;1.40;;;14.60;99.90;;;14.74;100.00;101966.44;5240630;28;20569;-49
2023/09/30 01:48:11;;;;;;;3.95;1.65;;;14.50;99.90;;;14.73;100.00;101964.63;5242473;28;20060;-48
2023/09/30 01:50:43;;;;;;;4.90;1.60;;;14.50;99.90;;;14.70;100.00;101980.28;5239104;28;20060;-49
2023/09/30 01:53:17;;;;;;;2.35;1.42;;;14.50;99.90;;;14.67;100.00;101982.81;5243081;28;20393;-49
2023/09/30 01:55:49;;;;;;;3.22;1.55;;;14.50;99.90;;;14.64;100.00;101959.06;5239586;28;20037;-49
2023/09/30 01:58:22;;;;;;;2.42;1.33;;;14.50;99.90;;;14.62;100.00;101955.50;5244095;28;20052;-48
2023/09/30 02:00:55;;;;;;;4.97;1.85;;;14.40;99.90;;;14.64;100.00;101940.69;5239294;28;20458;-49
2023/09/30 02:03:29;;;;;;;3.15;1.52;;;14.50;99.90;;;14.69;100.00;101946.13;5227620;28;20052;-49
2023/09/30 02:06:02;;;;;;;3.63;1.33;;;14.50;99.90;;;14.68;100.00;101963.59;5239371;28;20040;-49
2023/09/30 02:08:37;;;;;;;3.25;1.85;;;14.50;99.90;;;14.66;100.00;101967.88;5227292;28;20462;-48
2023/09/30 02:11:09;;;;;;;3.70;1.48;;;14.50;99.90;;;14.64;100.00;101977.44;5243639;28;20049;-49
2023/09/30 02:13:44;;;;;;;2.95;1.65;;;14.40;99.90;;;14.62;100.00;101973.88;5223174;28;20044;-48
2023/09/30 02:16:16;;;;;;;;;;;14.50;99.90;;;14.60;100.00;101972.91;5239174;28;20052;-49
2023/09/30 02:18:50;;;;;;;2.75;1.30;;;14.40;99.90;;;14.56;100.00;101971.00;5239190;28;19928;-48
2023/09/30 02:21:22;;;;;;;3.38;1.40;;;14.40;99.90;;;14.53;100.00;101977.03;5226047;28;20045;-49
2023/09/30 02:23:56;;;;;;;3.95;1.45;;;14.40;99.90;;;14.55;100.00;101969.22;5228203;28;20040;-49
2023/09/30 02:26:29;;;;;;;3.47;1.73;;;14.40;99.90;;;14.58;100.00;101964.09;5227066;28;20111;-48
2023/09/30 02:29:01;;;;;;;5.53;1.40;;;14.40;99.90;;;14.58;100.00;101970.22;5227180;28;20045;-48
2023/09/30 02:31:37;;;;;;;5.07;1.90;;;14.40;99.90;;;14.59;100.00;101971.13;5242836;28;20135;-48
2023/09/30 02:34:09;;;;;;;7.60;2.08;;;14.50;99.90;;;14.61;100.00;101970.34;5243306;28;20099;-47
2023/09/30 02:36:42;;;;;;;4.18;1.73;;;14.40;99.90;;;14.61;100.00;101972.97;5243278;28;20052;-47
2023/09/30 02:39:16;;;;;;;4.18;1.90;;;14.50;99.90;;;14.61;100.00;101975.59;5224585;28;20140;-47
2023/09/30 02:41:53;;;;;;;4.85;1.73;;;14.40;99.90;;;14.58;100.00;101980.72;5220639;28;20347;-48
2023/09/30 02:44:25;;;;;;;4.90;1.65;;;14.40;99.90;;;14.58;100.00;101974.59;5231592;28;20065;-47
2023/09/30 02:46:58;;;;;;;4.88;2.13;;;14.40;99.90;;;14.55;100.00;101980.63;5234750;28;20148;-47
2023/09/30 02:49:33;;;;;;;3.70;1.95;;;14.40;99.90;;;14.54;100.00;101977.91;5224545;28;20462;-47
2023/09/30 02:52:06;;;;;;;3.10;1.73;;;14.40;99.90;;;14.53;100.00;101971.78;5223925;28;20052;-47
2023/09/30 02:54:39;;;;;;;4.25;2.05;;;14.30;99.90;;;14.51;100.00;101967.31;5227874;28;20200;-48
2023/09/30 02:57:12;;;;;;;3.85;1.98;;;14.30;99.90;;;14.50;100.00;101973.41;5234705;28;20498;-47
2023/09/30 02:59:45;;;;;;;3.85;1.58;;;14.30;99.90;;;14.47;100.00;101970.66;5224661;28;20057;-48
2023/09/30 03:02:18;;;;;;;3.78;1.80;;;14.30;99.90;;;14.44;100.00;101970.53;5236662;28;20060;-47
2023/09/30 03:04:52;;;;;;;4.97;1.73;;;14.20;99.90;;;14.41;100.00;101984.44;5221825;28;20053;-48
2023/09/30 03:07:24;;;;;;;5.90;2.03;;;14.20;99.90;;;14.39;100.00;101992.22;5224082;28;20056;-47
2023/09/30 03:09:59;;;;;;;4.65;1.83;;;14.20;99.90;;;14.35;100.00;101981.56;5235832;28;20061;-47
2023/09/30 03:12:32;;;;;;;4.63;1.77;;;14.20;99.90;;;14.31;100.00;101980.53;5221498;28;20590;-48
2023/09/30 03:15:06;;;;;;;5.38;1.95;;;14.10;99.90;;;14.27;100.00;101982.97;5240501;28;20052;-47
2023/09/30 03:17:39;;;;;;;3.17;1.65;;;14.10;99.90;;;14.24;100.00;101981.16;5225224;28;20068;-48
2023/09/30 03:20:14;;;;;;;4.95;1.60;;;14.10;99.90;;;14.23;100.00;101974.13;5240052;28;20064;-47
2023/09/30 03:22:47;;;;;;;2.58;1.33;;;14.10;99.90;;;14.23;100.00;101984.59;5240500;28;20045;-48
2023/09/30 03:25:22;;;;;;;2.33;1.63;;;14.10;99.90;;;14.23;100.00;101988.97;5231969;28;20137;-47
2023/09/30 03:27:54;;;;;;;3.40;1.90;;;14.10;99.90;;;14.21;100.00;101980.13;5236409;28;20339;-47
2023/09/30 03:30:27;;;;;;;3.20;1.63;;;14.00;99.90;;;14.19;100.00;101985.31;5236476;28;20056;-48
2023/09/30 03:32:59;;;;;;;3.58;1.73;;;14.00;99.90;;;14.17;100.00;101980.84;5240288;28;20057;-47
2023/09/30 03:35:32;;;;;;;4.00;1.83;;;14.00;99.90;;;14.13;100.00;101985.06;5233610;28;20041;-47
2023/09/30 03:38:04;;;;;;;4.07;1.70;;;14.00;99.90;;;14.11;100.00;101992.00;5236217;28;20520;-48
2023/09/30 03:40:38;;;;;;;4.45;1.85;;;14.00;99.90;;;14.07;100.00;101996.22;5240014;28;20053;-48
2023/09/30 03:43:11;;;;;;;4.55;2.40;;;13.90;99.90;;;14.04;100.00;101995.22;5220037;28;20512;-47
2023/09/30 03:45:43;;;;;;;5.25;2.60;;;13.90;99.90;;;14.00;100.00;101991.56;5235533;28;20106;-48
2023/09/30 03:48:16;;;;;;;5.85;2.53;;;13.90;99.90;;;13.99;100.00;101987.16;5229852;28;20052;-48
2023/09/30 03:50:49;;;;;;;5.70;2.47;;;13.80;99.90;;;13.99;100.00;101987.16;5238792;28;20119;-47
2023/09/30 03:53:21;;;;;;;3.67;2.15;;;13.80;99.90;;;13.97;100.00;101983.59;5232083;28;20098;-47
2023/09/30 03:55:55;;;;;;;4.40;2.17;;;13.80;99.90;;;13.94;100.00;101972.06;5239165;28;20099;-47
2023/09/30 03:58:27;;;;;;;4.50;2.00;;;13.80;99.90;;;13.90;100.00;101971.06;5223089;28;20052;-48
2023/09/30 04:01:01;;;;;;;4.38;1.55;;;13.80;99.90;;;13.89;100.00;101973.59;5239824;28;20496;-47
2023/09/30 04:03:34;;;;;;;3.42;1.40;;;13.80;99.90;;;13.88;100.00;101969.19;5235725;28;20058;-48
2023/09/30 04:06:07;;;;;;;4.50;1.70;;;13.70;99.90;;;13.83;100.00;101967.31;5235626;28;20052;-48
2023/09/30 04:08:40;;;;;;;3.65;2.20;;;13.70;99.90;;;13.79;100.00;101969.75;5222799;28;20044;-47
2023/09/30 04:11:17;;;;;;;3.63;1.60;;;13.70;99.90;;;13.74;100.00;101971.28;5228023;28;20052;-48
2023/09/30 04:13:50;;;;;;;3.05;1.77;;;13.60;99.90;;;13.70;100.00;101979.88;5235692;28;20489;-47
2023/09/30 04:16:28;;;;;;;3.40;1.40;;;13.60;99.90;;;13.68;100.00;101968.41;5233830;28;20037;-48
2023/09/30 04:19:01;;;;;;;4.32;2.08;;;13.50;99.90;;;13.66;100.00;101970.06;5222715;28;20053;-47
2023/09/30 04:21:34;;;;;;;5.10;1.73;;;13.50;99.90;;;13.65;100.00;101963.06;5235420;28;20053;-48
2023/09/30 04:24:07;;;;;;;4.30;1.55;;;13.50;99.90;;;13.65;100.00;101966.56;5232297;28;20075;-48
2023/09/30 04:26:41;;;;;;;3.80;1.60;;;13.50;99.90;;;13.61;100.00;101972.50;5222286;28;20052;-48
2023/09/30 04:29:14;;;;;;;3.35;1.80;;;13.50;99.90;;;13.58;100.00;101961.91;5225243;28;20794;-47
2023/09/30 04:31:49;;;;;;;4.10;2.10;;;13.40;99.90;;;13.53;100.00;101974.81;5239098;28;20136;-48
2023/09/30 04:34:21;;;;;;;4.13;1.63;;;13.40;99.90;;;13.49;100.00;101983.34;5235357;28;20037;-47
2023/09/30 04:36:54;;;;;;;3.95;1.73;;;13.40;99.90;;;13.46;100.00;101971.88;5235536;28;20339;-48
2023/09/30 04:39:26;;;;;;;4.00;1.80;;;13.30;99.90;;;13.42;100.00;101964.69;5232231;28;20045;-47
2023/09/30 04:42:04;;;;;;;3.22;1.30;;;13.30;99.90;;;13.38;100.00;101978.53;5238924;28;20057;-47
2023/09/30 04:44:41;;;;;;;3.95;1.77;;;13.30;99.90;;;13.33;100.00;101974.81;5220141;28;20458;-47
2023/09/30 04:47:13;;;;;;;4.13;1.70;;;13.20;99.90;;;13.29;100.00;101973.78;5238772;28;20515;-48
2023/09/30 04:49:46;;;;;;;3.53;1.92;;;13.20;99.90;;;13.26;100.00;101969.31;5228593;28;20063;-48
2023/09/30 04:52:18;;;;;;;3.33;1.50;;;13.20;99.90;;;13.24;100.00;101978.84;5221909;28;20323;-48
2023/09/30 04:54:51;;;;;;;3.97;1.73;;;13.10;99.90;;;13.22;100.00;101985.72;5229501;28;20053;-47
2023/09/30 04:57:25;;;;;;;4.15;1.58;;;13.10;99.90;;;13.19;100.00;101995.13;5235283;28;20052;-48
2023/09/30 04:59:58;;;;;;;3.92;2.10;;;13.00;99.90;;;13.13;100.00;102003.63;5222024;28;20443;-47
2023/09/30 05:02:30;;;;;;;3.50;1.73;;;13.00;99.90;;;13.09;100.00;102012.16;5232078;28;20482;-48
2023/09/30 05:05:05;;;;;;;4.88;1.80;;;13.00;99.90;;;13.03;100.00;102011.88;5238221;28;20055;-48
2023/09/30 05:07:38;;;;;;;4.10;1.60;;;13.00;99.90;;;12.99;100.00;102012.59;5235733;28;20526;-48
2023/09/30 05:10:13;;;;;;;3.80;1.60;;;12.90;99.90;;;12.96;100.00;102009.81;5219694;28;20736;-48
2023/09/30 05:12:47;;;;;;;3.63;1.95;;;12.90;99.90;;;12.96;100.00;102025.53;5223160;28;20428;-47
2023/09/30 05:15:19;;;;;;;3.00;1.60;;;12.80;99.90;;;12.93;100.00;102020.19;5233080;28;20044;-47
2023/09/30 05:17:52;;;;;;;4.85;1.67;;;12.80;99.90;;;12.88;100.00;102011.22;5221520;28;20048;-48
2023/09/30 05:20:25;;;;;;;2.63;1.30;;;12.80;99.90;;;12.84;100.00;102014.50;5233999;28;20139;-48
2023/09/30 05:22:57;;;;;;;3.95;1.50;;;12.80;99.90;;;12.82;100.00;102009.22;5218621;28;20059;-47
2023/09/30 05:25:30;;;;;;;3.13;1.50;;;12.70;99.90;;;12.82;100.00;102005.72;5235896;28;20056;-48
2023/09/30 05:28:05;;;;;;;3.28;1.63;;;12.70;99.90;;;12.81;100.00;102010.03;5221896;28;20064;-48
2023/09/30 05:30:37;;;;;;;3.63;1.42;;;12.70;99.90;;;12.80;100.00;102009.97;5235616;28;20045;-47
2023/09/30 05:33:14;;;;;;;3.92;1.75;;;12.70;99.90;;;12.77;100.00;102029.94;5224329;28;20324;-48
2023/09/30 05:35:46;;;;;;;3.70;1.80;;;12.70;99.90;;;12.76;100.00;102030.75;5221086;28;20133;-47
2023/09/30 05:38:19;;;;;;;4.00;1.92;;;12.60;99.90;;;12.74;100.00;102032.41;5232765;28;20358;-48
2023/09/30 05:40:51;;;;;;;4.03;2.03;;;12.70;99.90;;;12.73;100.00;102032.38;5236700;28;20048;-47
2023/09/30 05:43:27;;;;;;;3.10;2.03;;;12.60;99.90;;;12.73;100.00;102037.59;5238170;28;20099;-47
2023/09/30 05:45:59;;;;;;;5.32;2.10;;;12.60;99.90;;;12.73;100.00;102042.81;5237896;28;20470;-47
2023/09/30 05:48:31;;;;;;;3.75;1.73;;;12.60;99.90;;;12.73;100.00;102046.34;5237884;28;20492;-48
2023/09/30 05:51:04;;;;;;;3.40;2.00;;;12.60;99.90;;;12.74;100.00;102040.28;5219562;28;20136;-47
2023/09/30 05:53:36;;;;;;;3.90;1.73;;;12.60;99.90;;;12.76;100.00;102043.84;5220726;28;20041;-48
2023/09/30 05:56:11;;;;;;;3.92;1.92;;;12.70;99.90;;;12.76;100.00;102040.34;5233153;28;20586;-48
2023/09/30 05:58:44;;;;;;;;;;;12.60;99.90;;;12.74;100.00;102042.00;5234556;28;20056;-47
2023/09/30 06:01:18;;;;;;;4.65;1.92;;;12.70;99.90;;;12.76;100.00;102032.50;5226830;28;19921;-48
2023/09/30 06:03:51;;;;;;;3.97;2.28;;;12.70;99.90;;;12.81;100.00;102035.31;5219666;28;20135;-47
2023/09/30 06:06:24;;;;;;;4.50;2.00;;;12.70;99.90;;;12.85;100.00;102034.66;5220982;28;20215;-47
2023/09/30 06:08:58;;;;;;;3.20;1.65;;;12.80;99.90;;;12.89;100.00;102040.06;5233436;28;20059;-48
2023/09/30 06:11:30;;;;;;;4.40;1.90;;;12.80;99.90;;;12.92;100.00;102035.00;5237732;28;20064;-47
2023/09/30 06:14:06;;;;;;;3.17;1.92;;;12.80;99.90;;;12.98;100.00;102040.50;5235811;28;20065;-47
2023/09/30 06:16:38;;;;;;;4.50;2.10;;;12.90;99.90;;;13.04;100.00;102045.13;5238783;28;20121;-47
2023/09/30 06:19:10;;;;;;;6.32;2.17;;;12.90;99.90;;;13.09;100.00;102050.53;5239218;28;20049;-47
2023/09/30 06:21:43;;;;;;;6.68;2.47;;;13.00;99.90;;;13.16;100.00;102049.97;5241896;28;20506;-44
2023/09/30 06:24:15;;;;;;;5.47;2.72;;;13.00;99.90;;;13.25;100.00;102051.31;5227389;28;20455;-44
2023/09/30 06:26:48;;;;;;;4.50;2.42;;;13.10;99.90;;;13.37;100.00;102050.06;5222853;28;20429;-45
2023/09/30 06:29:23;;;;;;;4.60;2.33;;;13.20;99.90;;;13.49;100.00;102055.81;5224199;28;20415;-45
2023/09/30 06:31:55;;;;;;;5.53;2.42;;;13.30;99.90;;;13.66;100.00;102053.91;5241435;28;20048;-45
2023/09/30 06:34:27;;;;;;;6.07;2.30;;;13.50;99.90;;;13.83;100.00;102052.91;5224976;28;20099;-45
2023/09/30 06:37:00;;;;;;;9.88;3.20;;;13.60;99.90;;;13.97;100.00;102050.84;5224838;28;20063;-47
2023/09/30 06:39:32;;;;;;;6.03;2.83;;;13.80;99.90;;;14.05;100.00;102054.69;5241813;28;20404;-48
2023/09/30 06:42:08;;;;;;;4.45;2.28;;;13.90;99.90;;;14.13;100.00;102053.25;5242155;28;20045;-47
2023/09/30 06:44:41;;;;;;;6.03;2.50;;;14.00;99.90;;;14.20;100.00;102054.38;5241690;28;20045;-47
2023/09/30 06:47:14;;;;;;;7.25;2.45;;;14.00;99.90;;;14.22;100.00;102053.63;5241515;28;20053;-47
2023/09/30 06:49:46;;;;;;;5.53;2.33;;;14.10;99.90;;;14.22;100.00;102069.38;5241413;28;20044;-47
2023/09/30 06:52:22;;;;;;;8.57;2.90;;;14.10;99.90;;;14.26;100.00;102071.25;5224534;28;20613;-46
2023/09/30 06:54:54;;;;;;;5.57;2.35;;;14.10;99.90;;;14.35;100.00;102074.28;5224126;28;20107;-46
2023/09/30 06:57:27;;;;;;;4.50;2.00;;;14.20;99.90;;;14.39;100.00;102070.91;5222051;28;20045;-45
2023/09/30 07:00:01;;;;;;;6.38;2.58;;;14.30;99.90;;;14.71;100.00;102066.06;5233381;28;20578;-48
2023/09/30 07:02:33;;;;;;;9.35;2.97;;;14.70;99.90;;;15.17;100.00;102073.00;5236464;28;20049;-45
2023/09/30 07:05:08;;;;;;;4.10;2.08;;;15.10;99.90;;;15.33;100.00;102080.63;5237243;28;20132;-46
2023/09/30 07:07:42;;;;;;;;;;;15.30;99.90;;;15.23;100.00;102094.25;5241043;28;20052;-47
2023/09/30 07:10:15;;;;;;;5.10;2.55;;;15.20;99.90;;;15.15;100.00;102091.34;5238851;28;20015;-48
2023/09/30 07:12:47;;;;;;;6.43;2.75;;;15.20;99.90;;;15.13;100.00;102086.91;5223270;28;20138;-47
2023/09/30 07:15:21;;;;;;;7.85;3.72;;;15.10;99.90;;;15.02;100.00;102090.84;5240782;28;20049;-47
2023/09/30 07:17:53;;;;;;;5.90;2.75;;;15.00;99.90;;;14.78;100.00;102083.81;5223971;28;20131;-47
2023/09/30 07:20:26;;;;;;;6.00;2.80;;;14.90;99.90;;;14.62;100.00;102082.34;5224316;28;20049;-47
2023/09/30 07:22:58;;;;;;;5.80;2.75;;;14.70;99.90;;;14.51;100.00;102085.38;5223915;28;20116;-47
2023/09/30 07:25:32;;;;;;;8.05;3.33;;;14.60;99.90;;;14.45;100.00;102083.38;5223522;28;20048;-46
2023/09/30 07:28:11;;;;;;;6.43;3.15;;;14.50;99.90;;;14.38;100.00;102095.38;5223921;28;20041;-46
2023/09/30 07:30:45;;;;;;;5.35;2.38;;;14.40;99.90;;;14.39;100.00;102099.78;5223929;28;20618;-46
2023/09/30 07:33:18;;;;;;;6.45;2.67;;;14.30;99.90;;;14.44;100.00;102093.81;5223532;28;20069;-46
2023/09/30 07:35:50;;;;;;;10.52;3.83;;;14.40;99.90;;;14.48;100.00;102106.28;5240585;28;20541;-47
2023/09/30 07:38:23;;;;;;;7.47;3.13;;;14.40;99.90;;;14.51;100.00;102109.00;5224229;28;20084;-47
2023/09/30 07:40:55;;;;;;;9.02;3.63;;;14.40;99.90;;;14.55;100.00;102105.69;5240135;28;20047;-48
2023/09/30 07:43:30;;;;;;;8.68;3.30;;;14.50;99.90;;;14.57;100.00;102117.13;5222966;28;20057;-46
2023/09/30 07:46:08;;;;;;;7.70;3.78;;;14.50;99.90;;;14.59;100.00;102126.84;5223904;28;20419;-47
2023/09/30 07:48:41;;;;;;;7.15;2.92;;;14.50;99.90;;;14.63;100.00;102127.88;5184926;28;20044;-47
2023/09/30 07:51:15;;;;;;;8.02;3.05;;;14.50;99.90;;;14.70;100.00;102140.38;5214763;28;20064;-47
2023/09/30 07:53:47;;;;;;;7.93;3.55;;;14.60;99.90;;;14.75;100.00;102141.47;5241145;28;20053;-47
2023/09/30 07:56:23;;;;;;;9.52;3.85;;;14.60;99.90;;;14.75;100.00;102136.22;5240785;28;20550;-47
2023/09/30 07:58:55;;;;;;;9.77;4.00;;;14.70;99.90;;;14.76;100.00;102134.50;5241055;28;20152;-46
2023/09/30 08:01:30;;;;;;;9.52;4.40;;;14.70;99.90;;;14.79;100.00;102127.59;5240670;28;20171;-46
2023/09/30 08:04:02;;;;;;;12.02;4.40;;;14.70;99.90;;;14.84;100.00;102120.81;5240648;28;20168;-48
2023/09/30 08:06:34;;;;;;;14.18;5.43;;;14.70;99.90;;;14.92;100.00;102126.34;5240500;28;20578;-46
2023/09/30 08:09:09;;;;;;;12.02;4.90;;;14.70;99.90;;;14.93;100.00;102110.69;5240464;28;20102;-46
2023/09/30 08:11:42;;;;;;;14.43;4.95;;;14.80;99.90;;;15.00;100.00;102118.78;5240414;28;20496;-47
2023/09/30 08:14:15;;;;;;;11.73;4.70;;;14.80;99.90;;;15.07;100.00;102123.44;5240237;28;20063;-46
2023/09/30 08:16:49;;;;;;;11.75;4.75;;;14.90;99.90;;;15.23;100.00;102128.41;5240384;28;20076;-45
2023/09/30 08:19:21;;;;;;;16.08;5.88;;;15.00;99.90;;;15.35;100.00;102147.25;5239653;28;20136;-47
2023/09/30 08:21:54;;;;;;;13.13;5.18;;;15.10;99.90;;;15.34;100.00;102150.72;5240102;28;20053;-47
2023/09/30 08:24:26;;;;;;;10.50;4.55;;;15.10;99.90;;;15.29;100.00;102149.66;5240272;28;20138;-48
2023/09/30 08:26:58;;;;;;;12.88;4.43;;;15.10;99.90;;;15.37;100.00;102156.06;5240137;28;20160;-47
2023/09/30 08:29:31;;;;;;;10.38;4.18;;;15.20;99.90;;;15.41;100.00;102152.72;5240080;28;20037;-48
2023/09/30 08:32:04;;;;;;;14.27;5.18;;;15.20;99.90;;;15.47;100.00;102152.94;5239693;28;20131;-46
2023/09/30 08:34:37;;;;;;;11.73;5.03;;;15.30;99.90;;;15.46;100.00;102151.16;5223493;28;20144;-46
2023/09/30 08:37:10;;;;;;;14.65;5.57;;;15.30;99.90;;;15.44;100.00;102168.59;5222434;28;20053;-46
2023/09/30 08:39:42;;;;;;;12.80;4.72;;;15.30;99.90;;;15.74;100.00;102170.59;5223269;28;20049;-47
2023/09/30 08:42:15;;;;;;;14.70;5.47;;;15.50;99.90;;;16.79;100.00;102162.72;5223249;28;20049;-47
2023/09/30 08:44:49;;;;;;;14.85;5.65;;;16.00;99.90;;;17.77;100.00;102165.59;5222420;28;20048;-45
2023/09/30 08:47:25;;;;;;;9.75;3.85;;;16.90;99.90;;;18.46;100.00;102162.97;5223643;28;20041;-47
2023/09/30 08:50:05;;;;;;;13.73;4.68;;;17.50;99.90;;;18.90;100.00;102163.13;5221849;28;20057;-47
2023/09/30 08:52:44;;;;;;;8.30;3.65;;;18.10;99.90;;;19.02;100.00;102173.97;5217846;28;20126;-47
2023/09/30 08:55:16;;;;;;;9.77;3.70;;;18.40;99.90;;;18.88;100.00;102170.13;5238014;28;20095;-49
2023/09/30 08:57:51;;;;;;;7.70;3.50;;;18.40;99.90;;;18.65;100.00;102173.13;5223025;28;20077;-49
2023/09/30 09:00:24;;;;;;;12.10;4.63;;;18.30;99.90;;;18.36;100.00;102169.75;5222993;28;20047;-49
2023/09/30 09:02:58;;;;;;;9.43;4.20;;;18.10;99.90;;;17.99;100.00;102170.56;5222935;28;20049;-48
2023/09/30 09:05:30;;;;;;;9.77;4.57;;;17.90;99.90;;;17.83;100.00;102165.75;5222766;28;20052;-48
2023/09/30 09:08:03;;;;;;;9.35;4.15;;;17.70;99.90;;;17.80;100.00;102165.66;5222732;28;20102;-48
2023/09/30 09:10:36;;;;;;;8.57;3.45;;;17.60;99.90;;;17.83;100.00;102161.38;5238317;28;20045;-48
2023/09/30 09:13:08;;;;;;;10.18;3.80;;;17.60;99.90;;;18.09;100.00;102140.94;5218878;28;20140;-49
2023/09/30 09:15:42;;;;;;;8.38;3.75;;;17.70;99.90;;;18.49;100.00;102147.19;5222681;28;20041;-48
2023/09/30 09:18:33;;;;;;;14.25;5.43;;;18.00;99.90;;;18.91;100.00;102134.13;5242585;28;20139;-47
2023/09/30 09:21:13;;;;;;;11.40;4.80;;;18.40;99.90;;;19.13;100.00;102130.16;5245744;28;20053;-47
2023/09/30 09:23:48;;;;;;;9.13;4.28;;;18.70;99.90;;;19.52;100.00;102129.19;5259378;28;20044;-46
2023/09/30 09:26:27;;;;;;;10.10;4.38;;;18.90;99.90;;;19.85;100.00;102136.00;5227963;28;20060;-47
2023/09/30 09:29:01;;;;;;;9.05;4.15;;;19.20;99.90;;;20.06;100.00;102129.31;5256887;28;20052;-47
2023/09/30 09:31:35;;;;;;;10.18;4.25;;;19.50;99.90;;;20.24;100.00;102139.31;5259686;28;20045;-46
2023/09/30 09:34:15;;;;;;;7.45;3.28;;;19.60;99.90;;;20.27;100.00;102133.16;5224018;28;20053;-54
2023/09/30 09:36:48;;;;;;;9.57;3.95;;;19.70;99.90;;;20.22;100.00;102132.22;5239021;28;20102;-49
2023/09/30 09:39:31;;;;;;;8.63;4.00;;;19.70;99.90;;;20.30;100.00;102135.88;5239845;28;20033;-50
2023/09/30 09:42:04;;;;;;;10.13;4.35;;;19.80;99.90;;;20.56;100.00;102131.03;5241864;28;20072;-48
2023/09/30 09:44:38;;;;;;;9.07;4.13;;;19.90;99.90;;;20.59;100.00;102125.75;5227926;28;20076;-49
2023/09/30 09:47:11;;;;;;;8.77;3.90;;;20.00;99.90;;;20.62;100.00;102120.53;5233686;28;20488;-50
2023/09/30 09:49:45;;;;;;;9.45;3.80;;;20.10;99.90;;;20.76;100.00;102123.34;5230950;28;20056;-49
2023/09/30 09:52:23;;;;;;;7.70;3.45;;;20.20;99.90;;;20.83;100.00;102127.88;5234426;28;20072;-48
2023/09/30 09:54:57;;;;;;;8.32;3.85;;;20.30;99.90;;;20.78;100.00;102127.78;5251219;28;20435;-49
2023/09/30 09:57:32;;;;;;;;;;;20.30;99.90;;;20.80;100.00;102136.69;5249131;28;20078;-49
2023/09/30 10:00:11;;;;;;;10.15;3.97;;;20.40;99.90;;;20.76;100.00;102139.25;5239884;28;20295;-49
2023/09/30 10:02:44;;;;;;;6.65;3.20;;;20.30;99.90;;;20.94;100.00;102128.03;5237355;28;20049;-48
2023/09/30 10:05:19;;;;;;;7.35;3.53;;;20.40;99.90;;;21.18;100.00;102125.66;5240864;28;20076;-49
2023/09/30 10:07:55;;;;;;;7.88;3.35;;;20.60;99.90;;;21.35;100.00;102126.78;5225760;28;20044;-50
2023/09/30 10:10:32;;;;;;;8.48;3.05;;;20.70;99.90;;;21.50;100.00;102130.50;5237160;28;20577;-49
2023/09/30 10:13:05;;;;;;;6.70;3.22;;;20.90;99.90;;;21.67;100.00;102142.19;5247225;28;20049;-50
2023/09/30 10:15:41;;;;;;;6.05;3.38;;;21.00;99.90;;;21.85;100.00;102134.41;5230914;28;20341;-49
2023/09/30 10:18:13;;;;;;;9.88;3.95;;;21.20;99.90;;;21.85;99.09;102126.44;5227155;28;20041;-48
2023/09/30 10:20:48;;;;;;;9.43;4.03;;;21.20;99.90;;;21.71;99.04;102138.66;5209191;28;20068;-50
2023/09/30 10:23:25;;;;;;;5.68;3.00;;;21.20;99.90;;;21.73;99.87;102128.97;5207054;28;20413;-49
2023/09/30 10:26:17;;;;;;;6.78;3.13;;;21.20;99.90;;;21.93;100.00;102134.47;5209046;28;20050;-49
2023/09/30 10:28:50;;;;;;;7.53;2.88;;;21.30;99.90;;;22.09;99.51;102135.53;5214494;28;20045;-49
2023/09/30 10:31:25;;;;;;;6.22;3.20;;;21.50;99.90;;;22.16;98.22;102147.97;5225648;28;20412;-50